»·PEaware :: N7969 KSAF-KONM

N7969 :: KSAF-KONM

FLIGHT INFORMATION

Flight Status: Arrived
Operator: Privately registered:
United States
More flights under this callsign
Pilot: Diana Atalanta G. (28375)
Aircraft: PIPER PA-31/31P NAVAJO CHIEFTAIN
(PA31)
More flights by this aircraft type
Origin: KSAF Santa Fe Mun
United States
Destination: KONM Socorro Mun
United States
More flights between these airports :: More routes between these airports
Route: NELGE ABQ ONM
File this flight plan on PilotEdge
Remarks: NONE
Altitude:
(Current/Filed)
10,500ft
Speed:
(Current/Filed)
160kts
Departed: 10-Apr-23 03:06 PM
Arrived: 10-Apr-23 03:46 PM
Distance/Time
Traveled:
104nm/0:40
Distance/Time
To Go:
Arrived

Flight Plot

Page will automatically refresh every two minutes.

Flight plan parsing failed; only flown route is shown


Map Options




Map Legend


Flown Route
Filed Route
Departure Airport
Arrival Airport
Navaid (VOR, NDB)
Fix

Horizontal Profiles

Position Reports

Time Latitude Longitude Heading Altitude Ground
Speed
10-Apr-23 14:55 35.621150 -106.082565 35 6332ft 0kts
10-Apr-23 14:56 35.621150 -106.082565 35 6332ft 0kts
10-Apr-23 14:57 35.621194 -106.082526 35 6332ft 0kts
10-Apr-23 14:58 35.621194 -106.082526 35 6332ft 0kts
10-Apr-23 14:59 35.621226 -106.082498 35 6332ft 0kts
10-Apr-23 15:00 35.621226 -106.082498 35 6332ft 0kts
10-Apr-23 15:01 35.623743 -106.080895 35 6348ft 22kts
10-Apr-23 15:02 35.625986 -106.079363 344 6358ft 0kts
10-Apr-23 15:03 35.625986 -106.079363 344 6358ft 0kts
10-Apr-23 15:04 35.626300 -106.079488 342 6358ft 18kts
10-Apr-23 15:05 35.618277 -106.087160 211 6396ft 121kts
10-Apr-23 15:06 35.587187 -106.112078 207 8313ft 124kts
10-Apr-23 15:07 35.555714 -106.131809 206 10224ft 135kts
10-Apr-23 15:08 35.518673 -106.152845 202 10525ft 169kts
10-Apr-23 15:09 35.488039 -106.197779 244 10442ft 183kts
10-Apr-23 15:10 35.464817 -106.254274 244 10548ft 182kts
10-Apr-23 15:11 35.444450 -106.310385 246 10604ft 191kts
10-Apr-23 15:12 35.423707 -106.373063 247 10502ft 191kts
10-Apr-23 15:13 35.404285 -106.434215 250 10532ft 195kts
10-Apr-23 15:14 35.383134 -106.494117 243 10406ft 197kts
10-Apr-23 15:15 35.358054 -106.546391 236 10419ft 196kts
10-Apr-23 15:16 35.326424 -106.594870 222 10419ft 195kts
10-Apr-23 15:17 35.288182 -106.637073 221 10419ft 195kts
10-Apr-23 15:18 35.253673 -106.675073 221 10418ft 195kts
10-Apr-23 15:19 35.220646 -106.711446 221 10418ft 195kts
10-Apr-23 15:20 35.175504 -106.761167 221 10419ft 195kts
10-Apr-23 15:21 35.134086 -106.806967 221 10416ft 195kts
10-Apr-23 15:22 35.084563 -106.816186 177 10484ft 188kts
10-Apr-23 15:23 35.031075 -106.817682 184 10414ft 193kts
10-Apr-23 15:24 34.977724 -106.820643 177 10465ft 190kts
10-Apr-23 15:25 34.924550 -106.814105 168 10428ft 192kts
10-Apr-23 15:26 34.870907 -106.814388 180 10387ft 195kts
10-Apr-23 15:27 34.816794 -106.815589 179 10375ft 193kts
10-Apr-23 15:28 34.763172 -106.815663 177 10426ft 191kts
10-Apr-23 15:30 34.709793 -106.814557 180 10443ft 192kts
10-Apr-23 15:31 34.655518 -106.814669 178 10363ft 193kts
10-Apr-23 15:32 34.602062 -106.813263 176 10435ft 190kts
10-Apr-23 15:33 34.549819 -106.811321 184 10244ft 197kts
10-Apr-23 15:34 34.497527 -106.818412 181 10469ft 188kts
10-Apr-23 15:35 34.451594 -106.819712 180 10462ft 191kts
10-Apr-23 15:36 34.422402 -106.820252 178 10415ft 194kts
10-Apr-23 15:37 34.368422 -106.820575 178 10388ft 193kts
10-Apr-23 15:38 34.315127 -106.820376 178 10480ft 189kts
10-Apr-23 15:39 34.265490 -106.832777 193 9831ft 146kts
10-Apr-23 15:40 34.232823 -106.851006 199 8721ft 119kts
10-Apr-23 15:41 34.194056 -106.871302 200 8465ft 167kts
10-Apr-23 15:42 34.148152 -106.894461 207 8083ft 187kts
10-Apr-23 15:43 34.100246 -106.922663 201 7307ft 202kts
10-Apr-23 15:44 34.054806 -106.911662 165 5740ft 116kts
10-Apr-23 15:45 34.030470 -106.903150 163 4811ft 77kts
10-Apr-23 15:46 34.023118 -106.898675 155 4796ft 11kts

Navigation Log

Ident Type
Flight plan parsing failed, navigation log unavailable